Airfield :
LOGIN :

Register | Disclaimer

   EN    FR    IT 

 










Legend :    VFR   Marginal VFR   IFR   Intensive IFR   Very Intensive IFR
Visi :
Ceiling :
>= 8 km
>= 3000ft
5 to 8 km
1000 to 3000 ft
1500m to 5 km
500 to 1000 ft
800 to 1500m
200 to 500 ft
< 800m
< 200 ft
Symbols :   Thunderstorms  Fog  Heavy snow  Heavy precipitations  Wind > 20 kt
SIGMETs :     Misc.  Thunderstorms  Icing  Turbulence  Mountain Waves  Volcanic Ashes







- Airport Elevation : 1071 ft
- IATA code : LWO


UKLL - L'viv

CURRENT METAR :
  • 201500Z VRB01MPS 9999 -TSRA SCT040CB BKN040 15/14 Q1008 R31/290055 TEMPO VRB10G17MPS 1100 TSRAGR SQ BKN007 BKN015CB

EXPIRED METARs :
  • 201430Z VRB01MPS 8000 VCTS -SHRA SCT040CB BKN040 15/14 Q1007 R13/290055 TEMPO VRB10G17MPS 1100 TSRAGR SQ BKN007 BKN015CB
  • 201400Z 02002MPS 270V050 9000 VCTS -SHRA SCT040CB BKN040 15/15 Q1007 R31/290055 TEMPO VRB10G17MPS 1100 TSRAGR SQ BKN007 BKN015CB
  • 201343Z 25003MPS 200V280 8000 2300NW VCTS -SHRA SCT036CB BKN036 15/14 Q1008 R31/290055 TEMPO VRB10G17MPS 1100 TSRAGR SQ BKN007 BKN015CB
  • 201330Z 26004MPS 230V290 9999 VCTS -SHRA SCT036CB BKN036 15/14 Q1008 R31/290055 TEMPO VRB10G17MPS 1100 TSRAGR SQ BKN007 BKN015CB
  • 201307Z 26006MPS 210V290 8000 VCTS -SHRA SCT020CB BKN020 15/14 Q1007 R31/290055 TEMPO VRB10G17MPS 1100 TSRAGR SQ BKN007 BKN015CB
  • 201300Z 24007MPS 210V290 9000 VCTS -SHRA SCT020CB BKN020 16/14 Q1007 R31/290055 TEMPO VRB10G17MPS 1100 TSRAGR SQ BKN007 BKN015CB
  • 201236Z 15006MPS 9999 VCTS SCT035CB BKN035 22/17 Q1006 R13/D TEMPO VRB10G17MPS -TSRAGR SQ BKN015CB
  • 201230Z 15006MPS 9999 SCT035CB BKN035 22/17 Q1006 R13/CLRD// TEMPO VRB10G17MPS -TSRAGR SQ BKN015CB

TAF TAF UKLL
Valid from the 20 at 12:00 until the 21 at 12:00 UTC


201106Z 2012/2112 15006G12MPS 3000 -SHRA BR SCT003 BKN007 BKN020CB
TEMPO 2012/2019 VRB10G17MPS 1100 TSRAGR SQ BKN015CB
TEMPO 2019/2023 1400 TSRAGR SCT004 BKN015CB
BECMG 2023/2024 VRB01MPS
BECMG 2103/2104 23005G12MPS
No reported NOTAMs for that airfield.
5 SIGMETs reported for the L'VIV FIR (UKLV) :
 
Severe turbulence
UKLV SIGMET 7 VALID 201600/201800 UKLW
UKLV LVIV FIR/UIR SEV TURB FCST ENTIRE FIR/UIR SFC/1500M MOV NW 40KMH WKN=
Embedded thunderstorms and hail
UKLV SIGMET 6 VALID 201500/201700 UKLW
UKLV LVIV FIR/UIR EMBD TSGR OBS ENTIRE FIR/UIR TOP FL430 MOV NW 40KMH NC=
Embedded thunderstorms and hail
UKLV SIGMET 5 VALID 201300/201500 UKLW
UKLV LVIV FIR/UIR EMBD TSGR OBS W OF E025 TOP FL430 MOV NW 40KMH NC=
Embedded thunderstorms and hail
UKLV SIGMET 4 VALID 201300/201500 UKLW
UKLV LVIV FIR/UIR EMBD TSGR FCST E OF E025 TOP FL400 MOV NW 40KMH INTSF=
Severe turbulence
UKLV SIGMET 3 VALID 201200/201600 UKLW
UKLV LVIV FIR/UIR SEV TURB FCST ENTIRE FIR SFC/1500M MOV NW 40KMH NC=



MET'MAP, your aeronautical weather chart ! - Copyright ORBIFLY December 2007 - Disclaimer

ORBIFLY MET'MAP TEAM :

Programming & Development : Alexandra Zaïnal
Concept & Development : Baudouin d'Aumeries
Co-Development & Prog : Marc-Olivier Méhu
Technical & hardware support : Manuel Goepfert

Contact : metmap@orbifly.com




SOURCES & CREDITS :

   NOAA